createdAt,value
2022-09-15T00:01:38.561Z,26.73
2022-09-15T00:04:07.482Z,26.73
2022-09-15T00:06:36.268Z,26.72
2022-09-15T00:09:05.063Z,26.72
2022-09-15T00:11:35.472Z,26.70
2022-09-15T00:14:06.228Z,26.71
2022-09-15T00:16:35.065Z,26.71
2022-09-15T00:19:04.824Z,26.71
2022-09-15T00:21:35.154Z,26.70
2022-09-15T00:24:04.040Z,26.71
2022-09-15T00:26:32.826Z,26.71
2022-09-15T00:29:02.331Z,26.70
2022-09-15T00:31:31.939Z,26.70
2022-09-15T00:34:05.242Z,26.72
2022-09-15T00:36:33.817Z,26.72
2022-09-15T00:39:02.302Z,26.72
2022-09-15T00:41:30.592Z,26.71
2022-09-15T00:43:58.854Z,26.71
2022-09-15T00:46:34.196Z,26.70
2022-09-15T00:49:19.780Z,26.70
2022-09-15T00:52:05.158Z,26.70
2022-09-15T00:54:41.756Z,26.72
2022-09-15T00:57:38.067Z,26.73
2022-09-15T01:00:13.199Z,26.75
2022-09-15T01:02:43.086Z,26.76
2022-09-15T01:05:13.388Z,26.75
2022-09-15T01:07:53.491Z,26.72
2022-09-15T01:10:34.217Z,26.70
2022-09-15T01:13:05.756Z,26.69
2022-09-15T01:15:43.004Z,26.70
2022-09-15T01:18:43.230Z,26.69
2022-09-15T01:21:20.650Z,26.70
2022-09-15T01:24:07.123Z,26.72
2022-09-15T01:26:53.015Z,26.73
2022-09-15T01:29:52.127Z,26.73
2022-09-15T01:32:56.952Z,26.72
2022-09-15T01:35:48.470Z,26.68
2022-09-15T01:38:45.726Z,26.67
2022-09-15T01:41:25.663Z,26.69
2022-09-15T01:44:05.729Z,26.70
2022-09-15T01:46:37.773Z,26.71
2022-09-15T01:49:08.018Z,26.71
2022-09-15T01:51:38.002Z,26.71
2022-09-15T01:54:07.291Z,26.69
2022-09-15T01:56:37.966Z,26.70
2022-09-15T01:59:06.454Z,26.70
2022-09-15T02:01:45.118Z,26.69
2022-09-15T02:04:47.553Z,26.70
2022-09-15T02:07:35.797Z,26.75
2022-09-15T02:10:37.248Z,26.79
2022-09-15T02:13:17.509Z,26.79
2022-09-15T02:15:51.947Z,26.75
2022-09-15T02:18:44.290Z,26.74
2022-09-15T02:21:18.454Z,26.75
2022-09-15T02:23:51.435Z,26.76
2022-09-15T02:26:24.834Z,26.74
2022-09-15T02:28:56.062Z,26.72
2022-09-15T02:31:25.987Z,26.70
2022-09-15T02:34:09.354Z,26.68
2022-09-15T02:36:38.766Z,26.66
2022-09-15T02:39:14.415Z,26.66
2022-09-15T02:41:43.314Z,26.65
2022-09-15T02:44:12.505Z,26.63
2022-09-15T02:46:40.987Z,26.62
2022-09-15T02:49:09.367Z,26.61
2022-09-15T02:51:37.743Z,26.60
2022-09-15T02:54:06.499Z,26.60
2022-09-15T02:56:34.948Z,26.59
2022-09-15T02:59:03.292Z,26.58
2022-09-15T03:01:32.699Z,26.58
2022-09-15T03:04:03.240Z,26.58
2022-09-15T03:06:35.188Z,26.58
2022-09-15T03:09:08.181Z,26.57
2022-09-15T03:11:37.375Z,26.58
2022-09-15T03:14:07.395Z,26.58
2022-09-15T03:16:36.266Z,26.58
2022-09-15T03:19:05.175Z,26.57
2022-09-15T03:21:33.763Z,26.57
2022-09-15T03:24:02.652Z,26.56
2022-09-15T03:26:31.468Z,26.56
2022-09-15T03:28:59.718Z,26.56
2022-09-15T03:31:28.218Z,26.56
2022-09-15T03:33:56.783Z,26.55
2022-09-15T03:36:25.267Z,26.53
2022-09-15T03:38:53.439Z,26.52
2022-09-15T03:41:21.922Z,26.52
2022-09-15T03:43:50.301Z,26.52
2022-09-15T03:46:18.797Z,26.52
2022-09-15T03:48:47.901Z,26.52
2022-09-15T03:51:16.516Z,26.52
2022-09-15T03:53:44.975Z,26.53
2022-09-15T03:56:25.311Z,26.52
2022-09-15T03:58:54.504Z,26.54
2022-09-15T04:01:23.720Z,26.55
2022-09-15T04:03:52.699Z,26.57
2022-09-15T04:06:22.612Z,26.58
2022-09-15T04:08:51.747Z,26.59
2022-09-15T04:11:22.645Z,26.58
2022-09-15T04:13:51.028Z,26.58
2022-09-15T04:16:23.511Z,26.58
2022-09-15T04:18:53.225Z,26.58
2022-09-15T04:21:27.187Z,26.58
2022-09-15T04:23:55.705Z,26.57
2022-09-15T04:26:32.655Z,26.57
2022-09-15T04:29:04.504Z,26.56
2022-09-15T04:31:34.623Z,26.58
2022-09-15T04:34:03.374Z,26.58
2022-09-15T04:36:32.142Z,26.57
2022-09-15T04:39:00.626Z,26.56
2022-09-15T04:41:29.424Z,26.57
2022-09-15T04:43:58.753Z,26.56
2022-09-15T04:46:27.171Z,26.57
2022-09-15T04:48:56.395Z,26.56
2022-09-15T04:51:25.293Z,26.56
2022-09-15T04:53:53.831Z,26.55
2022-09-15T04:56:24.756Z,26.56
2022-09-15T04:59:03.133Z,26.55
2022-09-15T05:01:34.560Z,26.56
2022-09-15T05:04:06.789Z,26.58
2022-09-15T05:06:35.949Z,26.57
2022-09-15T05:09:10.056Z,26.56
2022-09-15T05:11:39.162Z,26.59
2022-09-15T05:14:08.588Z,26.60
2022-09-15T05:16:37.590Z,26.59
2022-09-15T05:19:06.440Z,26.59
2022-09-15T05:21:34.921Z,26.61
2022-09-15T05:24:03.715Z,26.62
2022-09-15T05:26:32.092Z,26.63
2022-09-15T05:29:00.899Z,26.61
2022-09-15T05:31:31.725Z,26.62
2022-09-15T05:34:02.572Z,26.61
2022-09-15T05:36:30.830Z,26.61
2022-09-15T05:38:59.339Z,26.62
2022-09-15T05:41:28.918Z,26.61
2022-09-15T05:43:58.528Z,26.61
2022-09-15T05:46:28.206Z,26.61
2022-09-15T05:48:58.137Z,26.61
2022-09-15T05:51:27.048Z,26.61
2022-09-15T05:53:55.427Z,26.60
2022-09-15T05:56:23.818Z,26.60
2022-09-15T05:58:52.657Z,26.60
2022-09-15T06:01:23.845Z,26.60
2022-09-15T06:03:53.344Z,26.60
2022-09-15T06:06:22.554Z,26.62
2022-09-15T06:08:58.956Z,26.63
2022-09-15T06:11:30.755Z,26.64
2022-09-15T06:14:01.027Z,26.66
2022-09-15T06:16:32.491Z,26.67
2022-09-15T06:19:01.649Z,26.68
2022-09-15T06:21:31.049Z,26.68
2022-09-15T06:24:02.297Z,26.68
2022-09-15T06:26:30.680Z,26.68
2022-09-15T06:29:01.224Z,26.69
2022-09-15T06:31:31.905Z,26.68
2022-09-15T06:34:00.937Z,26.67
2022-09-15T06:36:30.759Z,26.67
2022-09-15T06:39:00.057Z,26.73
2022-09-15T06:41:52.538Z,26.76
2022-09-15T06:44:20.253Z,26.79
2022-09-15T06:46:49.327Z,26.83
2022-09-15T06:49:18.546Z,26.82
2022-09-15T06:51:46.985Z,26.83
2022-09-15T06:54:16.381Z,26.83
2022-09-15T06:56:45.943Z,26.79
2022-09-15T06:59:15.612Z,26.80
2022-09-15T07:01:53.501Z,26.82
2022-09-15T07:04:22.547Z,26.84
2022-09-15T07:06:51.135Z,26.81
2022-09-15T07:09:20.021Z,26.80
2022-09-15T07:11:48.605Z,26.83
2022-09-15T07:14:17.292Z,26.84
2022-09-15T07:16:45.712Z,26.85
2022-09-15T07:19:14.153Z,26.84
2022-09-15T07:21:42.634Z,26.84
2022-09-15T07:24:11.073Z,26.83
2022-09-15T07:26:39.596Z,26.84
2022-09-15T07:29:08.089Z,26.84
2022-09-15T07:31:38.751Z,26.84
2022-09-15T07:34:08.329Z,26.85
2022-09-15T07:36:36.715Z,27.04
2022-09-15T07:39:06.649Z,27.27
2022-09-15T07:41:35.403Z,27.26
2022-09-15T07:44:03.786Z,27.11
2022-09-15T07:46:33.433Z,27.15
2022-09-15T07:49:03.543Z,27.13
2022-09-15T07:51:31.892Z,27.11
2022-09-15T07:54:00.886Z,27.10
2022-09-15T07:56:29.677Z,27.06
2022-09-15T07:58:58.466Z,27.06
2022-09-15T08:01:26.870Z,27.07
2022-09-15T08:03:55.322Z,27.07
2022-09-15T08:06:25.608Z,27.06
2022-09-15T08:08:59.790Z,27.04
2022-09-15T08:11:29.881Z,27.06
2022-09-15T08:14:02.658Z,27.07
2022-09-15T08:16:31.144Z,27.07
2022-09-15T08:19:00.258Z,27.08
2022-09-15T08:21:29.442Z,27.06
2022-09-15T08:23:59.959Z,27.08
2022-09-15T08:26:29.799Z,27.07
2022-09-15T08:28:58.576Z,27.07
2022-09-15T08:31:27.195Z,27.06
2022-09-15T08:33:56.974Z,27.02
2022-09-15T08:36:28.380Z,27.05
2022-09-15T08:38:57.218Z,27.08
2022-09-15T08:41:30.422Z,27.10
2022-09-15T08:44:31.555Z,27.09
2022-09-15T08:47:11.943Z,27.02
2022-09-15T08:49:51.704Z,27.15
2022-09-15T08:52:27.082Z,27.19
2022-09-15T08:54:58.761Z,27.21
2022-09-15T08:57:27.656Z,27.21
2022-09-15T08:59:56.645Z,27.20
2022-09-15T09:02:31.011Z,27.20
2022-09-15T09:05:16.753Z,27.19
2022-09-15T09:07:53.118Z,27.19
2022-09-15T09:10:33.786Z,27.21
2022-09-15T09:13:02.471Z,27.21
2022-09-15T09:16:01.204Z,27.22
2022-09-15T09:18:51.758Z,27.20
2022-09-15T09:21:54.354Z,27.18
2022-09-15T09:24:39.832Z,27.20
2022-09-15T09:27:14.553Z,27.23
2022-09-15T09:29:49.898Z,27.22
2022-09-15T09:32:26.488Z,27.22
2022-09-15T09:35:12.867Z,27.22
2022-09-15T09:37:41.510Z,27.22
2022-09-15T09:40:15.002Z,27.21
2022-09-15T09:42:44.563Z,27.20
2022-09-15T09:45:18.955Z,27.19
2022-09-15T09:47:47.462Z,27.18
2022-09-15T09:50:42.848Z,27.19
2022-09-15T09:53:34.293Z,27.18
2022-09-15T09:56:25.377Z,27.19
2022-09-15T09:58:54.832Z,27.18
2022-09-15T10:01:25.820Z,27.17
2022-09-15T10:04:19.204Z,27.16
2022-09-15T10:06:48.015Z,27.17
2022-09-15T10:09:18.535Z,27.19
2022-09-15T10:11:48.450Z,27.19
2022-09-15T10:14:41.713Z,27.18
2022-09-15T10:17:15.947Z,27.20
2022-09-15T10:19:53.083Z,27.22
2022-09-15T10:22:28.972Z,27.21
2022-09-15T10:24:59.092Z,27.21
2022-09-15T10:27:36.286Z,27.21
2022-09-15T10:30:14.076Z,27.20
2022-09-15T10:32:43.569Z,27.19
2022-09-15T10:35:19.754Z,27.19
2022-09-15T10:38:00.411Z,27.17
2022-09-15T10:41:13.436Z,27.18
2022-09-15T10:44:18.893Z,27.22
2022-09-15T10:47:02.525Z,27.24
2022-09-15T10:49:54.479Z,27.22
2022-09-15T10:52:44.134Z,27.21
2022-09-15T10:55:48.953Z,27.22
2022-09-15T10:58:39.929Z,27.23
2022-09-15T11:01:32.934Z,27.25
2022-09-15T11:04:11.468Z,27.24
2022-09-15T11:07:02.153Z,27.23
2022-09-15T11:09:39.239Z,27.22
2022-09-15T11:12:44.890Z,27.21
2022-09-15T11:15:21.835Z,27.26
2022-09-15T11:17:58.750Z,27.40
2022-09-15T11:20:42.598Z,27.42
2022-09-15T11:23:17.012Z,27.37
2022-09-15T11:26:10.800Z,27.35
2022-09-15T11:28:47.794Z,27.34
2022-09-15T11:31:27.944Z,27.35
2022-09-15T11:34:00.487Z,27.33
2022-09-15T11:36:42.398Z,27.31
2022-09-15T11:39:19.605Z,27.29
2022-09-15T11:41:51.482Z,27.28
2022-09-15T11:44:31.398Z,27.28
2022-09-15T11:47:05.817Z,27.26
2022-09-15T11:49:48.634Z,27.26
2022-09-15T11:52:33.398Z,27.24
2022-09-15T11:55:16.624Z,27.24
2022-09-15T11:57:49.543Z,27.26
2022-09-15T12:00:18.404Z,27.26
2022-09-15T12:03:03.762Z,27.25
2022-09-15T12:05:53.733Z,27.24
2022-09-15T12:08:28.102Z,27.25
2022-09-15T12:10:57.590Z,27.28
2022-09-15T12:13:26.790Z,27.27
2022-09-15T12:15:55.726Z,27.26
2022-09-15T12:18:49.047Z,27.25
2022-09-15T12:21:50.809Z,27.23
2022-09-15T12:25:00.728Z,27.21
2022-09-15T12:27:30.062Z,27.22
2022-09-15T12:30:00.667Z,27.25
2022-09-15T12:32:39.416Z,27.24
2022-09-15T12:35:17.217Z,27.22
2022-09-15T12:37:56.662Z,27.21
2022-09-15T12:40:33.272Z,27.20
2022-09-15T12:43:03.655Z,27.20
2022-09-15T12:45:35.582Z,27.20
2022-09-15T12:48:26.290Z,27.18
2022-09-15T12:50:57.777Z,27.19
2022-09-15T12:53:29.778Z,27.20
2022-09-15T12:56:08.860Z,27.21
2022-09-15T12:58:40.513Z,27.21
2022-09-15T13:01:27.073Z,27.22
2022-09-15T13:03:58.403Z,27.22
2022-09-15T13:06:35.464Z,27.22
2022-09-15T13:09:06.103Z,27.22
2022-09-15T13:11:37.564Z,27.23
2022-09-15T13:14:11.353Z,27.22
2022-09-15T13:16:45.962Z,27.21
2022-09-15T13:19:21.872Z,27.21
2022-09-15T13:21:58.899Z,27.20
2022-09-15T13:24:36.210Z,27.20
2022-09-15T13:27:06.405Z,27.21
2022-09-15T13:29:48.755Z,27.20
2022-09-15T13:32:32.047Z,27.21
2022-09-15T13:35:16.607Z,27.24
2022-09-15T13:38:29.125Z,27.25
2022-09-15T13:41:12.983Z,27.28
2022-09-15T13:44:10.439Z,27.30
2022-09-15T13:46:38.928Z,27.28
2022-09-15T13:49:28.813Z,27.25
2022-09-15T13:52:07.013Z,27.23
2022-09-15T13:54:35.391Z,27.21
2022-09-15T13:57:04.284Z,27.21
2022-09-15T13:59:33.590Z,27.20
2022-09-15T14:02:02.108Z,27.19
2022-09-15T14:04:32.126Z,27.20
2022-09-15T14:07:01.835Z,27.18
2022-09-15T14:09:41.032Z,27.19
2022-09-15T14:12:12.380Z,27.21
2022-09-15T14:14:45.067Z,27.22
2022-09-15T14:17:22.689Z,27.22
2022-09-15T14:19:56.754Z,27.21
2022-09-15T14:22:28.525Z,27.20
2022-09-15T14:24:58.763Z,27.20
2022-09-15T14:27:33.920Z,27.21
2022-09-15T14:30:06.115Z,27.20
2022-09-15T14:32:44.478Z,27.21
2022-09-15T14:35:19.751Z,27.22
2022-09-15T14:37:51.123Z,27.23
2022-09-15T14:40:29.422Z,27.24
2022-09-15T14:42:58.678Z,27.23
2022-09-15T14:48:31.066Z,27.25
2022-09-15T14:51:11.168Z,27.27
2022-09-15T14:53:42.173Z,27.26
2022-09-15T14:56:21.597Z,27.25
2022-09-15T14:58:53.814Z,27.25
2022-09-15T15:01:51.742Z,27.25
2022-09-15T15:04:20.321Z,27.25
2022-09-15T15:07:15.435Z,27.27
2022-09-15T15:09:50.663Z,27.25
2022-09-15T15:12:26.732Z,27.23
2022-09-15T15:14:56.755Z,27.23
2022-09-15T15:17:32.397Z,27.22
2022-09-15T15:20:25.384Z,27.22
2022-09-15T15:23:14.189Z,27.24
2022-09-15T15:25:43.560Z,27.27
2022-09-15T15:28:34.830Z,27.27
2022-09-15T15:31:20.171Z,27.25
2022-09-15T15:33:48.919Z,27.23
2022-09-15T15:36:22.060Z,27.22
2022-09-15T15:38:55.820Z,27.22
2022-09-15T15:41:29.599Z,27.22
2022-09-15T15:44:08.357Z,27.22
2022-09-15T15:46:56.829Z,27.24
2022-09-15T15:49:27.880Z,27.24
2022-09-15T15:52:00.395Z,27.24
2022-09-15T15:54:29.762Z,27.22
2022-09-15T15:57:20.219Z,27.22
2022-09-15T15:59:48.527Z,27.24
2022-09-15T16:02:16.806Z,27.27
2022-09-15T16:04:45.243Z,27.25
2022-09-15T16:07:18.012Z,27.23
2022-09-15T16:09:47.408Z,27.22
2022-09-15T16:12:16.904Z,27.22
2022-09-15T16:14:46.566Z,27.21
2022-09-15T16:17:14.903Z,27.20
2022-09-15T16:19:43.182Z,27.20
2022-09-15T16:22:20.743Z,27.20
2022-09-15T16:24:49.053Z,27.19
2022-09-15T16:27:18.558Z,27.20
2022-09-15T16:29:47.045Z,27.19
2022-09-15T16:32:19.536Z,27.20
2022-09-15T16:34:51.482Z,27.19
2022-09-15T16:37:20.165Z,27.20
2022-09-15T16:39:48.580Z,27.21
2022-09-15T16:42:17.030Z,27.21
2022-09-15T16:44:46.637Z,27.20
2022-09-15T16:47:15.222Z,27.19
2022-09-15T16:49:43.498Z,27.19
2022-09-15T16:52:13.873Z,27.20
2022-09-15T16:54:42.098Z,27.19
2022-09-15T16:57:11.207Z,27.19
2022-09-15T16:59:39.575Z,27.19
2022-09-15T17:02:13.002Z,27.20
2022-09-15T17:04:41.466Z,27.20
2022-09-15T17:07:09.952Z,27.21
2022-09-15T17:09:38.419Z,27.20
2022-09-15T17:12:09.824Z,27.20
2022-09-15T17:14:38.144Z,27.20
2022-09-15T17:17:26.596Z,27.20
2022-09-15T17:19:55.282Z,27.21
2022-09-15T17:22:23.663Z,27.24
2022-09-15T17:24:51.939Z,27.23
2022-09-15T17:27:20.439Z,27.22
2022-09-15T17:29:49.000Z,27.20
2022-09-15T17:32:17.386Z,27.19
2022-09-15T17:34:46.605Z,27.18
2022-09-15T17:37:14.964Z,27.18
2022-09-15T17:39:43.545Z,27.18
2022-09-15T17:42:12.538Z,27.18
2022-09-15T17:44:40.920Z,27.18
2022-09-15T17:47:09.296Z,27.18
2022-09-15T17:49:37.477Z,27.18
2022-09-15T17:52:05.786Z,27.18
2022-09-15T17:54:34.577Z,27.17
2022-09-15T17:57:04.225Z,27.17
2022-09-15T17:59:32.729Z,27.18
2022-09-15T18:02:01.187Z,27.18
2022-09-15T18:04:29.999Z,27.18
2022-09-15T18:06:58.507Z,27.18
2022-09-15T18:09:26.830Z,27.19
2022-09-15T18:11:55.038Z,27.18
2022-09-15T18:14:23.541Z,27.18
2022-09-15T18:16:51.851Z,27.18
2022-09-15T18:19:20.074Z,27.17
2022-09-15T18:21:53.479Z,27.16
2022-09-15T18:24:21.952Z,27.17
2022-09-15T18:26:50.739Z,27.17
2022-09-15T18:29:19.120Z,27.17
2022-09-15T18:31:49.853Z,27.18
2022-09-15T18:34:18.235Z,27.19
2022-09-15T18:36:46.922Z,27.18
2022-09-15T18:39:15.401Z,27.21
2022-09-15T18:41:43.992Z,27.24
2022-09-15T18:44:12.369Z,27.24
2022-09-15T18:46:41.002Z,27.23
2022-09-15T18:49:09.840Z,27.21
2022-09-15T18:51:51.250Z,27.20
2022-09-15T18:54:20.323Z,27.20
2022-09-15T18:56:48.597Z,27.21
2022-09-15T18:59:17.853Z,27.21
2022-09-15T19:01:46.470Z,27.20
2022-09-15T19:04:15.478Z,27.20
2022-09-15T19:06:43.961Z,27.19
2022-09-15T19:09:12.237Z,27.20
2022-09-15T19:11:40.614Z,27.21
2022-09-15T19:14:08.991Z,27.20
2022-09-15T19:16:56.649Z,27.19
2022-09-15T19:19:26.438Z,27.21
2022-09-15T19:21:54.925Z,27.24
2022-09-15T19:24:23.207Z,27.23
2022-09-15T19:26:51.784Z,27.21
2022-09-15T19:29:20.160Z,27.21
2022-09-15T19:31:49.344Z,27.20
2022-09-15T19:34:18.408Z,27.19
2022-09-15T19:36:47.143Z,27.20
2022-09-15T19:39:15.523Z,27.19
2022-09-15T19:41:44.309Z,27.19
2022-09-15T19:44:12.689Z,27.20
2022-09-15T19:46:41.069Z,27.19
2022-09-15T19:49:10.454Z,27.18
2022-09-15T19:51:38.851Z,27.18
2022-09-15T19:54:07.334Z,27.18
2022-09-15T19:56:36.030Z,27.18
2022-09-15T19:59:05.576Z,27.17
2022-09-15T20:01:34.582Z,27.17
2022-09-15T20:04:03.512Z,27.17
2022-09-15T20:06:32.942Z,27.17
2022-09-15T20:09:01.707Z,27.17
2022-09-15T20:11:30.905Z,27.17
2022-09-15T20:13:59.811Z,27.17
2022-09-15T20:16:29.509Z,27.17
2022-09-15T20:18:58.089Z,27.18
2022-09-15T20:21:48.764Z,27.17
2022-09-15T20:24:18.099Z,27.20
2022-09-15T20:26:46.486Z,27.23
2022-09-15T20:29:15.016Z,27.23
2022-09-15T20:31:44.152Z,27.22
2022-09-15T20:34:12.916Z,27.23
2022-09-15T20:36:41.425Z,27.20
2022-09-15T20:39:13.506Z,27.23
2022-09-15T20:41:45.332Z,27.24
2022-09-15T20:44:14.970Z,27.25
2022-09-15T20:46:43.659Z,27.27
2022-09-15T20:49:13.668Z,27.27
2022-09-15T20:51:42.558Z,27.26
2022-09-15T20:54:11.345Z,27.25
2022-09-15T20:56:39.723Z,27.25
2022-09-15T20:59:10.774Z,27.26
2022-09-15T21:01:40.514Z,27.25
2022-09-15T21:04:10.086Z,27.26
2022-09-15T21:06:38.917Z,27.25
2022-09-15T21:09:08.070Z,27.26
2022-09-15T21:11:37.166Z,27.26
2022-09-15T21:14:05.652Z,27.26
2022-09-15T21:16:35.195Z,27.26
2022-09-15T21:19:04.149Z,27.25
2022-09-15T21:21:33.967Z,27.25
2022-09-15T21:24:06.343Z,27.26
2022-09-15T21:26:57.140Z,27.26
2022-09-15T21:29:25.722Z,27.29
2022-09-15T21:31:56.118Z,27.32
2022-09-15T21:34:24.633Z,27.32
2022-09-15T21:36:53.941Z,27.32
2022-09-15T21:39:22.414Z,27.30
2022-09-15T21:41:50.814Z,27.29
2022-09-15T21:44:19.071Z,27.29
2022-09-15T21:46:48.407Z,27.28
2022-09-15T21:49:18.389Z,27.28
2022-09-15T21:51:46.769Z,27.28
2022-09-15T21:54:15.866Z,27.28
2022-09-15T21:56:45.578Z,27.28
2022-09-15T21:59:14.057Z,27.28
2022-09-15T22:01:42.416Z,27.28
2022-09-15T22:04:11.124Z,27.28
2022-09-15T22:06:41.442Z,27.28
2022-09-15T22:09:13.824Z,27.28
2022-09-15T22:11:42.406Z,27.29
2022-09-15T22:14:12.322Z,27.30
2022-09-15T22:16:42.457Z,27.29
2022-09-15T22:19:12.151Z,27.29
2022-09-15T22:21:42.337Z,27.29
2022-09-15T22:24:13.321Z,27.29
2022-09-15T22:26:43.120Z,27.29
2022-09-15T22:29:12.022Z,27.30
2022-09-15T22:31:41.191Z,27.29
2022-09-15T22:34:10.130Z,27.29
2022-09-15T22:36:38.485Z,27.28
2022-09-15T22:39:06.969Z,27.28
2022-09-15T22:41:39.233Z,27.27
2022-09-15T22:44:11.715Z,27.27
2022-09-15T22:46:40.097Z,27.28
2022-09-15T22:49:08.372Z,27.29
2022-09-15T22:51:36.753Z,27.28
2022-09-15T22:54:05.645Z,27.27
2022-09-15T22:56:34.021Z,27.28
2022-09-15T22:59:03.092Z,27.29
2022-09-15T23:01:31.396Z,27.28
2022-09-15T23:04:01.779Z,27.28
2022-09-15T23:06:32.564Z,27.27
2022-09-15T23:09:03.950Z,27.29
2022-09-15T23:11:35.563Z,27.29
2022-09-15T23:14:04.148Z,27.29
2022-09-15T23:16:32.909Z,27.28
2022-09-15T23:19:01.825Z,27.27
2022-09-15T23:21:30.228Z,27.27
2022-09-15T23:23:59.452Z,27.28
2022-09-15T23:26:28.190Z,27.27
2022-09-15T23:28:56.692Z,27.27
2022-09-15T23:31:25.016Z,27.27
2022-09-15T23:33:53.436Z,27.27
2022-09-15T23:36:22.234Z,27.27
2022-09-15T23:38:51.010Z,27.27
2022-09-15T23:41:19.800Z,27.27
2022-09-15T23:43:48.489Z,27.27
2022-09-15T23:46:17.795Z,27.27
2022-09-15T23:48:46.274Z,27.26
2022-09-15T23:51:14.751Z,27.26
2022-09-15T23:53:43.324Z,27.26
2022-09-15T23:56:11.822Z,27.26
2022-09-15T23:58:40.610Z,27.26
